sensor_id;sensor_type;location;lat;lon;timestamp;temperature;humidity
54842;DHT22;40741;45.002;7.536;2023-02-01T01:01:34;2.90;99.70
54842;DHT22;40741;45.002;7.536;2023-02-01T01:03:59;3.00;97.70
54842;DHT22;40741;45.002;7.536;2023-02-01T01:06:28;3.00;98.00
54842;DHT22;40741;45.002;7.536;2023-02-01T01:08:56;3.00;98.50
54842;DHT22;40741;45.002;7.536;2023-02-01T01:11:25;3.00;98.60
54842;DHT22;40741;45.002;7.536;2023-02-01T01:13:53;2.90;98.90
54842;DHT22;40741;45.002;7.536;2023-02-01T01:16:20;2.90;99.20
54842;DHT22;40741;45.002;7.536;2023-02-01T01:18:47;2.80;99.40
54842;DHT22;40741;45.002;7.536;2023-02-01T01:21:14;2.80;99.80
54842;DHT22;40741;45.002;7.536;2023-02-01T01:23:40;2.90;99.90
54842;DHT22;40741;45.002;7.536;2023-02-01T01:26:09;2.80;99.90
54842;DHT22;40741;45.002;7.536;2023-02-01T01:28:36;2.80;99.90
54842;DHT22;40741;45.002;7.536;2023-02-01T01:31:02;2.70;99.90
54842;DHT22;40741;45.002;7.536;2023-02-01T01:33:28;2.80;99.90
54842;DHT22;40741;45.002;7.536;2023-02-01T01:35:54;2.50;99.90
54842;DHT22;40741;45.002;7.536;2023-02-01T02:45:21;2.40;99.90
54842;DHT22;40741;45.002;7.536;2023-02-01T02:48:29;2.50;99.90
54842;DHT22;40741;45.002;7.536;2023-02-01T02:51:04;2.60;97.60
54842;DHT22;40741;45.002;7.536;2023-02-01T02:53:59;2.60;96.30
54842;DHT22;40741;45.002;7.536;2023-02-01T02:56:44;2.60;96.20
54842;DHT22;40741;45.002;7.536;2023-02-01T02:59:30;2.70;96.80
54842;DHT22;40741;45.002;7.536;2023-02-01T03:02:15;2.70;97.60
54842;DHT22;40741;45.002;7.536;2023-02-01T03:05:00;2.60;98.90
54842;DHT22;40741;45.002;7.536;2023-02-01T03:07:55;2.60;99.90
54842;DHT22;40741;45.002;7.536;2023-02-01T03:13:05;2.50;99.90
54842;DHT22;40741;45.002;7.536;2023-02-01T04:03:51;2.30;99.90
54842;DHT22;40741;45.002;7.536;2023-02-01T04:06:17;2.20;99.90
54842;DHT22;40741;45.002;7.536;2023-02-01T04:08:43;2.00;99.90
54842;DHT22;40741;45.002;7.536;2023-02-01T04:11:08;1.90;99.90
54842;DHT22;40741;45.002;7.536;2023-02-01T04:13:35;1.80;99.40
54842;DHT22;40741;45.002;7.536;2023-02-01T04:16:00;1.70;99.90
54842;DHT22;40741;45.002;7.536;2023-02-01T04:18:26;1.70;99.90
54842;DHT22;40741;45.002;7.536;2023-02-01T04:20:52;1.60;99.90
54842;DHT22;40741;45.002;7.536;2023-02-01T04:23:17;1.60;99.90
54842;DHT22;40741;45.002;7.536;2023-02-01T04:25:43;1.60;99.90
54842;DHT22;40741;45.002;7.536;2023-02-01T04:28:09;1.60;99.90
54842;DHT22;40741;45.002;7.536;2023-02-01T04:30:34;1.60;99.90
54842;DHT22;40741;45.002;7.536;2023-02-01T04:33:00;1.60;99.90
54842;DHT22;40741;45.002;7.536;2023-02-01T04:35:28;1.60;99.90
54842;DHT22;40741;45.002;7.536;2023-02-01T04:37:54;1.70;99.90
54842;DHT22;40741;45.002;7.536;2023-02-01T04:40:20;1.80;99.90
54842;DHT22;40741;45.002;7.536;2023-02-01T04:42:45;1.80;99.90
54842;DHT22;40741;45.002;7.536;2023-02-01T04:45:11;1.80;99.90
54842;DHT22;40741;45.002;7.536;2023-02-01T04:47:37;1.80;99.90
54842;DHT22;40741;45.002;7.536;2023-02-01T04:50:03;1.80;99.90
54842;DHT22;40741;45.002;7.536;2023-02-01T04:52:28;1.80;99.90
54842;DHT22;40741;45.002;7.536;2023-02-01T04:54:54;1.90;99.90
54842;DHT22;40741;45.002;7.536;2023-02-01T05:26:53;2.70;99.20
54842;DHT22;40741;45.002;7.536;2023-02-01T05:29:19;2.40;99.50
54842;DHT22;40741;45.002;7.536;2023-02-01T05:31:46;2.30;99.90
54842;DHT22;40741;45.002;7.536;2023-02-01T05:34:12;2.30;99.90
54842;DHT22;40741;45.002;7.536;2023-02-01T05:36:38;2.20;99.90
54842;DHT22;40741;45.002;7.536;2023-02-01T05:39:04;2.10;99.90
54842;DHT22;40741;45.002;7.536;2023-02-01T05:41:29;2.10;99.90
54842;DHT22;40741;45.002;7.536;2023-02-01T05:43:55;2.00;99.90
54842;DHT22;40741;45.002;7.536;2023-02-01T05:46:21;1.90;99.90
54842;DHT22;40741;45.002;7.536;2023-02-01T05:48:47;2.00;99.90
54842;DHT22;40741;45.002;7.536;2023-02-01T05:51:12;2.00;99.90
54842;DHT22;40741;45.002;7.536;2023-02-01T05:53:38;2.10;99.90
54842;DHT22;40741;45.002;7.536;2023-02-01T05:56:04;2.00;99.90
